sensor_id;sensor_type;location;lat;lon;timestamp;P1;durP1;ratioP1;P2;durP2;ratioP2
27999;SDS011;15328;50.860;10.562;2024-03-22T00:02:24;6.93;;;4.22;;
27999;SDS011;15328;50.860;10.562;2024-03-22T00:07:25;6.13;;;3.80;;
27999;SDS011;15328;50.860;10.562;2024-03-22T00:12:25;7.28;;;4.30;;
27999;SDS011;15328;50.860;10.562;2024-03-22T00:17:26;7.50;;;4.47;;
27999;SDS011;15328;50.860;10.562;2024-03-22T00:22:26;9.65;;;5.72;;
27999;SDS011;15328;50.860;10.562;2024-03-22T00:27:27;8.95;;;5.55;;
27999;SDS011;15328;50.860;10.562;2024-03-22T00:32:27;11.38;;;6.50;;
27999;SDS011;15328;50.860;10.562;2024-03-22T00:37:28;8.45;;;5.65;;
27999;SDS011;15328;50.860;10.562;2024-03-22T00:42:28;11.38;;;6.45;;
27999;SDS011;15328;50.860;10.562;2024-03-22T00:47:29;10.02;;;5.82;;
27999;SDS011;15328;50.860;10.562;2024-03-22T00:52:29;8.80;;;6.10;;
27999;SDS011;15328;50.860;10.562;2024-03-22T00:57:29;9.93;;;6.45;;
27999;SDS011;15328;50.860;10.562;2024-03-22T01:02:30;9.18;;;5.63;;
27999;SDS011;15328;50.860;10.562;2024-03-22T01:07:30;9.00;;;5.30;;
27999;SDS011;15328;50.860;10.562;2024-03-22T01:12:30;8.50;;;4.72;;
27999;SDS011;15328;50.860;10.562;2024-03-22T01:17:31;9.10;;;5.32;;
27999;SDS011;15328;50.860;10.562;2024-03-22T01:22:31;12.18;;;6.95;;
27999;SDS011;15328;50.860;10.562;2024-03-22T01:27:32;11.40;;;5.83;;
27999;SDS011;15328;50.860;10.562;2024-03-22T01:32:32;8.90;;;5.70;;
27999;SDS011;15328;50.860;10.562;2024-03-22T01:37:32;12.85;;;7.03;;
27999;SDS011;15328;50.860;10.562;2024-03-22T01:42:33;12.07;;;7.03;;
27999;SDS011;15328;50.860;10.562;2024-03-22T01:47:33;10.30;;;7.00;;
27999;SDS011;15328;50.860;10.562;2024-03-22T01:52:34;12.43;;;7.13;;
27999;SDS011;15328;50.860;10.562;2024-03-22T01:57:34;16.20;;;8.70;;
27999;SDS011;15328;50.860;10.562;2024-03-22T02:02:36;12.75;;;7.90;;
27999;SDS011;15328;50.860;10.562;2024-03-22T02:07:36;13.73;;;8.07;;
27999;SDS011;15328;50.860;10.562;2024-03-22T02:12:37;17.08;;;8.50;;
27999;SDS011;15328;50.860;10.562;2024-03-22T02:17:40;11.82;;;7.05;;
27999;SDS011;15328;50.860;10.562;2024-03-22T02:22:40;16.10;;;7.90;;
27999;SDS011;15328;50.860;10.562;2024-03-22T02:27:41;10.33;;;6.23;;
27999;SDS011;15328;50.860;10.562;2024-03-22T02:32:41;13.57;;;7.43;;
27999;SDS011;15328;50.860;10.562;2024-03-22T02:37:42;14.48;;;8.13;;
27999;SDS011;15328;50.860;10.562;2024-03-22T02:42:42;17.30;;;8.75;;
27999;SDS011;15328;50.860;10.562;2024-03-22T02:47:42;14.77;;;8.80;;
27999;SDS011;15328;50.860;10.562;2024-03-22T02:52:43;17.70;;;8.82;;
27999;SDS011;15328;50.860;10.562;2024-03-22T02:57:43;17.20;;;9.23;;
27999;SDS011;15328;50.860;10.562;2024-03-22T03:02:44;16.05;;;8.25;;
27999;SDS011;15328;50.860;10.562;2024-03-22T03:07:45;19.13;;;10.20;;
27999;SDS011;15328;50.860;10.562;2024-03-22T03:12:47;21.08;;;10.10;;
27999;SDS011;15328;50.860;10.562;2024-03-22T03:17:47;20.08;;;10.02;;
27999;SDS011;15328;50.860;10.562;2024-03-22T03:22:48;19.73;;;10.60;;
27999;SDS011;15328;50.860;10.562;2024-03-22T03:27:48;17.15;;;9.77;;
27999;SDS011;15328;50.860;10.562;2024-03-22T03:32:48;19.55;;;11.38;;
27999;SDS011;15328;50.860;10.562;2024-03-22T03:37:49;18.05;;;9.80;;
27999;SDS011;15328;50.860;10.562;2024-03-22T03:42:50;24.08;;;12.43;;
27999;SDS011;15328;50.860;10.562;2024-03-22T03:47:50;19.13;;;10.05;;
27999;SDS011;15328;50.860;10.562;2024-03-22T03:52:51;19.23;;;10.13;;
27999;SDS011;15328;50.860;10.562;2024-03-22T03:57:51;17.83;;;9.27;;
27999;SDS011;15328;50.860;10.562;2024-03-22T04:02:51;20.17;;;10.57;;
27999;SDS011;15328;50.860;10.562;2024-03-22T04:07:52;20.13;;;11.35;;
27999;SDS011;15328;50.860;10.562;2024-03-22T04:12:52;17.83;;;9.63;;
27999;SDS011;15328;50.860;10.562;2024-03-22T04:17:52;21.52;;;10.50;;
27999;SDS011;15328;50.860;10.562;2024-03-22T04:22:53;17.80;;;10.57;;
27999;SDS011;15328;50.860;10.562;2024-03-22T04:27:53;18.73;;;10.07;;
27999;SDS011;15328;50.860;10.562;2024-03-22T04:32:54;23.27;;;12.15;;
27999;SDS011;15328;50.860;10.562;2024-03-22T04:37:54;23.23;;;11.68;;
27999;SDS011;15328;50.860;10.562;2024-03-22T04:42:54;22.58;;;10.95;;
27999;SDS011;15328;50.860;10.562;2024-03-22T04:47:55;23.15;;;11.55;;
27999;SDS011;15328;50.860;10.562;2024-03-22T04:52:55;25.20;;;12.02;;
27999;SDS011;15328;50.860;10.562;2024-03-22T04:57:55;24.95;;;13.02;;
27999;SDS011;15328;50.860;10.562;2024-03-22T05:02:55;27.77;;;13.67;;
27999;SDS011;15328;50.860;10.562;2024-03-22T05:07:56;25.17;;;13.37;;
27999;SDS011;15328;50.860;10.562;2024-03-22T05:12:57;23.50;;;12.88;;
27999;SDS011;15328;50.860;10.562;2024-03-22T05:17:57;23.15;;;12.57;;
27999;SDS011;15328;50.860;10.562;2024-03-22T05:22:59;25.73;;;13.90;;
27999;SDS011;15328;50.860;10.562;2024-03-22T05:28:00;30.20;;;15.33;;
27999;SDS011;15328;50.860;10.562;2024-03-22T05:33:00;28.48;;;14.75;;
27999;SDS011;15328;50.860;10.562;2024-03-22T05:38:01;29.73;;;16.03;;
27999;SDS011;15328;50.860;10.562;2024-03-22T05:43:01;31.73;;;16.58;;
27999;SDS011;15328;50.860;10.562;2024-03-22T05:48:02;32.10;;;16.80;;
27999;SDS011;15328;50.860;10.562;2024-03-22T05:53:02;31.55;;;16.88;;
27999;SDS011;15328;50.860;10.562;2024-03-22T05:58:03;32.42;;;17.20;;
27999;SDS011;15328;50.860;10.562;2024-03-22T06:03:04;27.50;;;14.80;;
27999;SDS011;15328;50.860;10.562;2024-03-22T06:08:05;31.58;;;16.83;;
27999;SDS011;15328;50.860;10.562;2024-03-22T06:13:05;32.28;;;15.90;;
27999;SDS011;15328;50.860;10.562;2024-03-22T06:18:06;32.30;;;15.88;;
27999;SDS011;15328;50.860;10.562;2024-03-22T06:23:07;28.27;;;14.38;;
27999;SDS011;15328;50.860;10.562;2024-03-22T06:28:08;27.88;;;13.75;;
27999;SDS011;15328;50.860;10.562;2024-03-22T06:33:08;26.15;;;13.63;;
27999;SDS011;15328;50.860;10.562;2024-03-22T06:38:08;28.60;;;14.13;;
27999;SDS011;15328;50.860;10.562;2024-03-22T06:43:09;27.95;;;13.73;;
27999;SDS011;15328;50.860;10.562;2024-03-22T06:48:09;28.52;;;15.07;;
27999;SDS011;15328;50.860;10.562;2024-03-22T06:53:10;24.80;;;12.93;;
27999;SDS011;15328;50.860;10.562;2024-03-22T06:58:10;26.63;;;13.43;;
27999;SDS011;15328;50.860;10.562;2024-03-22T07:03:10;26.05;;;13.00;;
27999;SDS011;15328;50.860;10.562;2024-03-22T07:08:11;25.73;;;13.70;;
27999;SDS011;15328;50.860;10.562;2024-03-22T07:13:11;25.17;;;13.50;;
27999;SDS011;15328;50.860;10.562;2024-03-22T07:18:11;28.93;;;13.47;;
27999;SDS011;15328;50.860;10.562;2024-03-22T07:23:12;27.05;;;13.50;;
27999;SDS011;15328;50.860;10.562;2024-03-22T07:28:12;24.52;;;12.80;;
27999;SDS011;15328;50.860;10.562;2024-03-22T07:33:12;24.90;;;13.27;;
27999;SDS011;15328;50.860;10.562;2024-03-22T07:38:16;26.52;;;14.15;;
27999;SDS011;15328;50.860;10.562;2024-03-22T07:43:16;24.23;;;12.68;;
27999;SDS011;15328;50.860;10.562;2024-03-22T07:48:17;25.90;;;13.27;;
27999;SDS011;15328;50.860;10.562;2024-03-22T07:53:17;26.57;;;13.57;;
27999;SDS011;15328;50.860;10.562;2024-03-22T07:58:17;24.55;;;11.95;;
27999;SDS011;15328;50.860;10.562;2024-03-22T08:03:18;23.30;;;11.63;;
27999;SDS011;15328;50.860;10.562;2024-03-22T08:08:18;20.17;;;9.77;;
27999;SDS011;15328;50.860;10.562;2024-03-22T08:13:18;17.77;;;9.57;;
27999;SDS011;15328;50.860;10.562;2024-03-22T08:18:19;18.48;;;9.38;;
27999;SDS011;15328;50.860;10.562;2024-03-22T08:23:19;18.10;;;9.45;;
27999;SDS011;15328;50.860;10.562;2024-03-22T08:28:20;16.67;;;8.77;;
27999;SDS011;15328;50.860;10.562;2024-03-22T08:33:20;14.82;;;8.10;;
27999;SDS011;15328;50.860;10.562;2024-03-22T08:38:21;14.77;;;7.97;;
27999;SDS011;15328;50.860;10.562;2024-03-22T08:43:21;16.30;;;8.33;;
27999;SDS011;15328;50.860;10.562;2024-03-22T08:48:23;12.85;;;7.50;;
27999;SDS011;15328;50.860;10.562;2024-03-22T08:53:23;12.53;;;7.27;;
27999;SDS011;15328;50.860;10.562;2024-03-22T08:58:24;13.18;;;7.45;;
27999;SDS011;15328;50.860;10.562;2024-03-22T09:03:25;15.33;;;7.50;;
27999;SDS011;15328;50.860;10.562;2024-03-22T09:08:25;13.57;;;7.90;;
27999;SDS011;15328;50.860;10.562;2024-03-22T09:13:26;11.68;;;6.93;;
27999;SDS011;15328;50.860;10.562;2024-03-22T09:18:26;11.57;;;6.77;;
27999;SDS011;15328;50.860;10.562;2024-03-22T09:23:27;13.65;;;7.00;;
27999;SDS011;15328;50.860;10.562;2024-03-22T09:28:27;12.20;;;7.38;;
27999;SDS011;15328;50.860;10.562;2024-03-22T09:33:28;13.88;;;8.60;;
27999;SDS011;15328;50.860;10.562;2024-03-22T09:38:28;13.35;;;7.85;;
27999;SDS011;15328;50.860;10.562;2024-03-22T09:43:29;15.68;;;9.73;;
27999;SDS011;15328;50.860;10.562;2024-03-22T09:48:30;14.32;;;9.10;;
27999;SDS011;15328;50.860;10.562;2024-03-22T09:53:32;17.65;;;10.25;;
27999;SDS011;15328;50.860;10.562;2024-03-22T09:58:32;15.95;;;9.43;;
27999;SDS011;15328;50.860;10.562;2024-03-22T10:03:33;15.52;;;9.60;;
27999;SDS011;15328;50.860;10.562;2024-03-22T10:08:34;20.45;;;11.00;;
27999;SDS011;15328;50.860;10.562;2024-03-22T10:13:35;15.98;;;10.00;;
27999;SDS011;15328;50.860;10.562;2024-03-22T10:18:36;17.60;;;11.20;;
27999;SDS011;15328;50.860;10.562;2024-03-22T10:23:36;18.23;;;10.80;;
27999;SDS011;15328;50.860;10.562;2024-03-22T10:28:37;16.45;;;10.23;;
27999;SDS011;15328;50.860;10.562;2024-03-22T10:33:44;17.55;;;10.73;;
27999;SDS011;15328;50.860;10.562;2024-03-22T10:38:45;14.63;;;9.15;;
27999;SDS011;15328;50.860;10.562;2024-03-22T10:43:46;14.45;;;9.25;;
27999;SDS011;15328;50.860;10.562;2024-03-22T10:48:47;18.67;;;10.65;;
27999;SDS011;15328;50.860;10.562;2024-03-22T10:53:48;18.33;;;10.85;;
27999;SDS011;15328;50.860;10.562;2024-03-22T10:58:51;16.85;;;10.85;;
27999;SDS011;15328;50.860;10.562;2024-03-22T11:04:04;15.73;;;10.30;;
27999;SDS011;15328;50.860;10.562;2024-03-22T11:09:06;14.32;;;9.30;;
27999;SDS011;15328;50.860;10.562;2024-03-22T11:14:08;11.70;;;7.60;;
27999;SDS011;15328;50.860;10.562;2024-03-22T11:19:08;14.10;;;8.53;;
27999;SDS011;15328;50.860;10.562;2024-03-22T11:24:09;15.43;;;9.82;;
27999;SDS011;15328;50.860;10.562;2024-03-22T11:29:11;16.52;;;9.68;;
27999;SDS011;15328;50.860;10.562;2024-03-22T11:34:12;19.23;;;10.53;;
27999;SDS011;15328;50.860;10.562;2024-03-22T11:39:12;19.30;;;10.90;;
27999;SDS011;15328;50.860;10.562;2024-03-22T11:44:13;19.13;;;10.85;;
27999;SDS011;15328;50.860;10.562;2024-03-22T11:49:13;21.40;;;12.82;;
27999;SDS011;15328;50.860;10.562;2024-03-22T11:54:14;20.53;;;12.13;;
27999;SDS011;15328;50.860;10.562;2024-03-22T11:59:14;22.95;;;13.63;;
27999;SDS011;15328;50.860;10.562;2024-03-22T12:04:15;17.65;;;10.80;;
27999;SDS011;15328;50.860;10.562;2024-03-22T12:09:15;18.27;;;11.90;;
27999;SDS011;15328;50.860;10.562;2024-03-22T12:14:16;19.80;;;12.20;;
27999;SDS011;15328;50.860;10.562;2024-03-22T12:19:16;20.27;;;11.37;;
27999;SDS011;15328;50.860;10.562;2024-03-22T12:24:16;16.17;;;10.30;;
27999;SDS011;15328;50.860;10.562;2024-03-22T12:29:17;17.27;;;10.40;;
27999;SDS011;15328;50.860;10.562;2024-03-22T12:34:18;14.32;;;9.32;;
27999;SDS011;15328;50.860;10.562;2024-03-22T12:39:18;19.02;;;10.90;;
27999;SDS011;15328;50.860;10.562;2024-03-22T12:44:18;20.92;;;13.20;;
27999;SDS011;15328;50.860;10.562;2024-03-22T12:49:19;17.80;;;11.52;;
27999;SDS011;15328;50.860;10.562;2024-03-22T12:54:19;19.00;;;11.43;;
27999;SDS011;15328;50.860;10.562;2024-03-22T12:59:20;17.23;;;11.57;;
27999;SDS011;15328;50.860;10.562;2024-03-22T13:04:21;15.35;;;9.38;;
27999;SDS011;15328;50.860;10.562;2024-03-22T13:09:21;14.87;;;8.83;;
27999;SDS011;15328;50.860;10.562;2024-03-22T13:14:21;14.43;;;9.27;;
27999;SDS011;15328;50.860;10.562;2024-03-22T13:19:22;13.20;;;8.63;;
27999;SDS011;15328;50.860;10.562;2024-03-22T13:24:22;12.43;;;7.93;;
27999;SDS011;15328;50.860;10.562;2024-03-22T13:29:22;13.07;;;7.23;;
27999;SDS011;15328;50.860;10.562;2024-03-22T13:34:23;12.00;;;8.02;;
27999;SDS011;15328;50.860;10.562;2024-03-22T13:39:23;13.27;;;8.20;;
27999;SDS011;15328;50.860;10.562;2024-03-22T13:44:24;14.27;;;9.57;;
27999;SDS011;15328;50.860;10.562;2024-03-22T13:49:24;11.95;;;7.15;;
27999;SDS011;15328;50.860;10.562;2024-03-22T13:54:25;10.90;;;7.20;;
27999;SDS011;15328;50.860;10.562;2024-03-22T13:59:26;9.63;;;5.87;;
27999;SDS011;15328;50.860;10.562;2024-03-22T14:04:26;10.40;;;6.32;;
27999;SDS011;15328;50.860;10.562;2024-03-22T14:09:27;10.20;;;7.03;;
27999;SDS011;15328;50.860;10.562;2024-03-22T14:14:27;10.95;;;6.55;;
27999;SDS011;15328;50.860;10.562;2024-03-22T14:19:28;12.93;;;7.73;;
27999;SDS011;15328;50.860;10.562;2024-03-22T14:24:28;13.03;;;7.43;;
27999;SDS011;15328;50.860;10.562;2024-03-22T14:29:28;11.18;;;7.03;;
27999;SDS011;15328;50.860;10.562;2024-03-22T14:34:29;12.07;;;7.47;;
27999;SDS011;15328;50.860;10.562;2024-03-22T14:39:29;9.27;;;6.60;;
27999;SDS011;15328;50.860;10.562;2024-03-22T14:44:29;13.70;;;7.57;;
27999;SDS011;15328;50.860;10.562;2024-03-22T14:49:30;8.13;;;5.40;;
27999;SDS011;15328;50.860;10.562;2024-03-22T14:54:30;10.13;;;6.78;;
27999;SDS011;15328;50.860;10.562;2024-03-22T14:59:31;12.10;;;7.75;;
27999;SDS011;15328;50.860;10.562;2024-03-22T15:04:32;12.63;;;8.10;;
27999;SDS011;15328;50.860;10.562;2024-03-22T15:09:32;10.40;;;7.30;;
27999;SDS011;15328;50.860;10.562;2024-03-22T15:14:32;10.90;;;7.10;;
27999;SDS011;15328;50.860;10.562;2024-03-22T15:19:33;13.67;;;8.10;;
27999;SDS011;15328;50.860;10.562;2024-03-22T15:24:34;15.13;;;9.40;;
27999;SDS011;15328;50.860;10.562;2024-03-22T15:29:34;13.83;;;8.63;;
27999;SDS011;15328;50.860;10.562;2024-03-22T15:34:34;11.43;;;7.17;;
27999;SDS011;15328;50.860;10.562;2024-03-22T15:39:35;11.43;;;7.10;;
27999;SDS011;15328;50.860;10.562;2024-03-22T15:44:35;13.75;;;8.98;;
27999;SDS011;15328;50.860;10.562;2024-03-22T15:49:36;13.57;;;8.48;;
27999;SDS011;15328;50.860;10.562;2024-03-22T15:54:36;11.37;;;7.70;;
27999;SDS011;15328;50.860;10.562;2024-03-22T15:59:36;12.83;;;7.73;;
27999;SDS011;15328;50.860;10.562;2024-03-22T16:04:37;9.60;;;7.20;;
27999;SDS011;15328;50.860;10.562;2024-03-22T16:09:40;10.13;;;6.30;;
27999;SDS011;15328;50.860;10.562;2024-03-22T16:14:40;11.03;;;7.60;;
27999;SDS011;15328;50.860;10.562;2024-03-22T16:19:41;12.65;;;8.88;;
27999;SDS011;15328;50.860;10.562;2024-03-22T16:24:41;14.05;;;8.88;;
27999;SDS011;15328;50.860;10.562;2024-03-22T16:29:41;13.07;;;7.70;;
27999;SDS011;15328;50.860;10.562;2024-03-22T16:34:42;13.30;;;8.45;;
27999;SDS011;15328;50.860;10.562;2024-03-22T16:39:42;13.05;;;8.40;;
27999;SDS011;15328;50.860;10.562;2024-03-22T16:44:43;13.45;;;8.80;;
27999;SDS011;15328;50.860;10.562;2024-03-22T16:49:43;11.57;;;7.10;;
27999;SDS011;15328;50.860;10.562;2024-03-22T16:54:43;14.93;;;7.07;;
27999;SDS011;15328;50.860;10.562;2024-03-22T16:59:44;10.07;;;6.95;;
27999;SDS011;15328;50.860;10.562;2024-03-22T17:04:44;9.13;;;5.90;;
27999;SDS011;15328;50.860;10.562;2024-03-22T17:09:45;13.38;;;7.35;;
27999;SDS011;15328;50.860;10.562;2024-03-22T17:14:45;13.55;;;6.90;;
27999;SDS011;15328;50.860;10.562;2024-03-22T17:19:46;11.15;;;7.72;;
27999;SDS011;15328;50.860;10.562;2024-03-22T17:24:47;13.13;;;7.03;;
27999;SDS011;15328;50.860;10.562;2024-03-22T17:29:48;12.88;;;7.22;;
27999;SDS011;15328;50.860;10.562;2024-03-22T17:34:48;13.73;;;6.95;;
27999;SDS011;15328;50.860;10.562;2024-03-22T17:39:48;10.85;;;7.25;;
27999;SDS011;15328;50.860;10.562;2024-03-22T17:44:49;10.13;;;6.57;;
27999;SDS011;15328;50.860;10.562;2024-03-22T17:49:49;10.70;;;7.47;;
27999;SDS011;15328;50.860;10.562;2024-03-22T17:54:50;9.03;;;6.87;;
27999;SDS011;15328;50.860;10.562;2024-03-22T17:59:50;10.17;;;6.80;;
27999;SDS011;15328;50.860;10.562;2024-03-22T18:04:51;8.67;;;5.83;;
27999;SDS011;15328;50.860;10.562;2024-03-22T18:09:51;8.65;;;5.93;;
27999;SDS011;15328;50.860;10.562;2024-03-22T18:14:52;7.65;;;5.35;;
27999;SDS011;15328;50.860;10.562;2024-03-22T18:19:52;11.15;;;7.13;;
27999;SDS011;15328;50.860;10.562;2024-03-22T18:24:52;10.83;;;7.67;;
27999;SDS011;15328;50.860;10.562;2024-03-22T18:29:53;12.03;;;6.90;;
27999;SDS011;15328;50.860;10.562;2024-03-22T18:34:53;10.18;;;6.45;;
27999;SDS011;15328;50.860;10.562;2024-03-22T18:39:54;15.02;;;7.28;;
27999;SDS011;15328;50.860;10.562;2024-03-22T18:44:55;9.45;;;6.18;;
27999;SDS011;15328;50.860;10.562;2024-03-22T18:49:55;11.43;;;7.28;;
27999;SDS011;15328;50.860;10.562;2024-03-22T18:54:56;11.02;;;6.95;;
27999;SDS011;15328;50.860;10.562;2024-03-22T19:00:00;13.23;;;8.35;;
27999;SDS011;15328;50.860;10.562;2024-03-22T19:05:00;11.15;;;6.50;;
27999;SDS011;15328;50.860;10.562;2024-03-22T19:10:02;11.57;;;7.60;;
27999;SDS011;15328;50.860;10.562;2024-03-22T19:15:04;10.63;;;6.47;;
27999;SDS011;15328;50.860;10.562;2024-03-22T19:20:06;9.05;;;5.95;;
27999;SDS011;15328;50.860;10.562;2024-03-22T19:25:07;10.85;;;7.10;;
27999;SDS011;15328;50.860;10.562;2024-03-22T19:30:08;12.57;;;7.63;;
27999;SDS011;15328;50.860;10.562;2024-03-22T19:35:09;25.80;;;16.35;;
27999;SDS011;15328;50.860;10.562;2024-03-22T19:40:09;11.83;;;7.60;;
27999;SDS011;15328;50.860;10.562;2024-03-22T19:45:10;10.93;;;7.22;;
27999;SDS011;15328;50.860;10.562;2024-03-22T19:50:11;11.97;;;7.17;;
27999;SDS011;15328;50.860;10.562;2024-03-22T19:55:11;11.07;;;7.88;;
27999;SDS011;15328;50.860;10.562;2024-03-22T20:00:12;11.45;;;7.00;;
27999;SDS011;15328;50.860;10.562;2024-03-22T20:05:12;14.85;;;8.60;;
27999;SDS011;15328;50.860;10.562;2024-03-22T20:10:13;14.65;;;8.63;;
27999;SDS011;15328;50.860;10.562;2024-03-22T20:15:13;14.57;;;8.45;;
27999;SDS011;15328;50.860;10.562;2024-03-22T20:20:15;12.45;;;7.80;;
27999;SDS011;15328;50.860;10.562;2024-03-22T20:25:16;14.43;;;9.35;;
27999;SDS011;15328;50.860;10.562;2024-03-22T20:30:16;13.95;;;9.18;;
27999;SDS011;15328;50.860;10.562;2024-03-22T20:35:17;14.73;;;9.18;;
